createdAt,value
2018-04-23T00:03:35.488Z,7.77
2018-04-23T00:07:38.016Z,7.70
2018-04-23T00:11:40.566Z,7.70
2018-04-23T00:15:43.077Z,7.97
2018-04-23T00:19:46.385Z,9.00
2018-04-23T00:23:48.915Z,8.83
2018-04-23T00:27:51.448Z,9.47
2018-04-23T00:31:54.771Z,9.07
2018-04-23T00:35:57.280Z,9.57
2018-04-23T00:39:59.820Z,9.03
2018-04-23T00:44:02.359Z,9.57
2018-04-23T00:48:04.899Z,9.27
2018-04-23T00:52:07.436Z,9.73
2018-04-23T00:56:09.946Z,9.33
2018-04-23T01:00:13.252Z,9.97
2018-04-23T01:04:16.551Z,9.47
2018-04-23T01:08:19.861Z,10.13
2018-04-23T01:12:23.181Z,10.30
2018-04-23T01:16:25.698Z,10.13
2018-04-23T01:20:28.241Z,11.00
2018-04-23T01:24:30.784Z,10.40
2018-04-23T01:28:33.332Z,11.33
2018-04-23T01:32:35.883Z,10.70
2018-04-23T01:36:39.200Z,10.30
2018-04-23T01:40:42.287Z,10.37
2018-04-23T01:44:45.601Z,11.03
2018-04-23T01:48:48.908Z,11.73
2018-04-23T01:52:51.464Z,11.13
2018-04-23T01:56:54.002Z,11.20
2018-04-23T02:00:56.523Z,11.73
2018-04-23T02:04:59.060Z,11.23
2018-04-23T02:09:01.625Z,12.43
2018-04-23T02:13:04.950Z,11.77
2018-04-23T02:17:07.488Z,11.63
2018-04-23T02:21:10.008Z,13.20
2018-04-23T02:25:12.548Z,13.37
2018-04-23T02:29:15.083Z,13.00
2018-04-23T02:33:17.647Z,12.27
2018-04-23T02:37:20.959Z,13.43
2018-04-23T02:41:23.488Z,13.83
2018-04-23T02:45:26.036Z,13.17
2018-04-23T02:49:29.339Z,13.90
2018-04-23T02:53:31.887Z,14.30
2018-04-23T02:57:34.437Z,14.10
2018-04-23T03:01:36.973Z,13.60
2018-04-23T03:05:40.280Z,13.83
2018-04-23T03:09:43.590Z,13.83
2018-04-23T03:13:46.892Z,13.13
2018-04-23T03:17:50.199Z,12.77
2018-04-23T03:21:53.493Z,10.70
2018-04-23T03:25:56.801Z,10.07
2018-04-23T03:30:00.108Z,10.73
2018-04-23T03:34:02.681Z,10.90
2018-04-23T03:38:05.979Z,9.50
2018-04-23T03:42:09.263Z,9.67
2018-04-23T03:46:11.808Z,10.87
2018-04-23T03:50:14.352Z,10.60
2018-04-23T03:54:16.909Z,10.57
2018-04-23T03:58:19.457Z,10.27
2018-04-23T04:02:21.977Z,11.07
2018-04-23T04:06:24.520Z,12.00
2018-04-23T04:10:27.061Z,12.63
2018-04-23T04:14:41.309Z,12.17
2018-04-23T04:18:45.676Z,13.97
2018-04-23T04:22:48.195Z,14.23
2018-04-23T04:26:51.604Z,14.30
2018-04-23T04:30:54.142Z,15.10
2018-04-23T04:34:56.684Z,14.77
2018-04-23T04:38:59.228Z,17.53
2018-04-23T04:43:01.755Z,18.00
2018-04-23T04:47:04.298Z,20.33
2018-04-23T04:51:06.864Z,21.53
2018-04-23T04:55:10.172Z,25.33
2018-04-23T04:59:13.481Z,24.93
2018-04-23T05:03:16.780Z,25.90
2018-04-23T05:07:20.088Z,27.43
2018-04-23T05:11:23.399Z,27.17
2018-04-23T05:15:25.941Z,24.97
2018-04-23T05:19:28.484Z,26.50
2018-04-23T05:23:31.004Z,26.23
2018-04-23T05:27:33.535Z,28.27
2018-04-23T05:31:36.096Z,29.37
2018-04-23T05:35:39.426Z,29.33
2018-04-23T05:39:41.964Z,28.37
2018-04-23T05:43:44.492Z,27.67
2018-04-23T05:47:47.028Z,28.80
2018-04-23T05:51:49.566Z,29.17
2018-04-23T05:55:52.116Z,27.07
2018-04-23T05:59:54.656Z,27.23
2018-04-23T06:03:57.185Z,26.63
2018-04-23T06:07:59.726Z,26.03
2018-04-23T06:12:03.385Z,25.83
2018-04-23T06:16:05.918Z,24.67
2018-04-23T06:20:08.460Z,22.67
2018-04-23T06:24:10.978Z,23.70
2018-04-23T06:28:13.572Z,23.20
2018-04-23T06:32:16.844Z,23.83
2018-04-23T06:36:20.146Z,23.17
2018-04-23T06:40:23.456Z,22.27
2018-04-23T06:44:26.748Z,20.27
2018-04-23T06:48:30.057Z,21.00
2018-04-23T06:52:33.370Z,18.70
2018-04-23T06:56:35.912Z,19.53
2018-04-23T07:00:38.447Z,17.13
2018-04-23T07:04:41.014Z,16.57
2018-04-23T07:08:44.299Z,16.57
2018-04-23T07:12:46.840Z,14.40
2018-04-23T07:16:49.392Z,14.13
2018-04-23T07:20:52.702Z,14.97
2018-04-23T07:24:55.255Z,15.80
2018-04-23T07:28:57.771Z,15.17
2018-04-23T07:33:00.315Z,13.97
2018-04-23T07:37:02.857Z,13.87
2018-04-23T07:41:05.408Z,13.73
2018-04-23T07:45:08.707Z,13.87
2018-04-23T07:49:11.232Z,12.53
2018-04-23T07:53:13.800Z,13.67
2018-04-23T07:57:16.335Z,12.43
2018-04-23T08:01:18.873Z,13.07
2018-04-23T08:05:21.411Z,13.03
2018-04-23T08:09:23.926Z,13.10
2018-04-23T08:13:27.237Z,12.43
2018-04-23T08:17:29.787Z,10.93
2018-04-23T08:21:32.327Z,12.07
2018-04-23T08:25:34.871Z,11.13
2018-04-23T08:29:37.384Z,7.27
2018-04-23T08:33:39.924Z,7.03
2018-04-23T08:37:42.465Z,6.53
2018-04-23T08:41:44.996Z,7.17
2018-04-23T08:45:47.540Z,5.87
2018-04-23T08:49:50.058Z,5.10
2018-04-23T08:53:52.595Z,5.17
2018-04-23T08:57:55.132Z,5.80
2018-04-23T09:01:57.664Z,4.73
2018-04-23T09:06:00.200Z,5.27
2018-04-23T09:10:02.724Z,4.90
2018-04-23T09:14:06.023Z,5.60
2018-04-23T09:18:09.321Z,6.17
2018-04-23T09:22:12.625Z,6.17
2018-04-23T09:26:15.928Z,5.60
2018-04-23T09:30:19.220Z,6.27
2018-04-23T09:34:22.524Z,6.47
2018-04-23T09:38:25.820Z,6.33
2018-04-23T09:42:28.351Z,7.10
2018-04-23T09:46:30.901Z,6.27
2018-04-23T09:50:34.209Z,6.00
2018-04-23T09:54:37.491Z,6.40
2018-04-23T09:58:40.053Z,6.83
2018-04-23T10:02:42.583Z,8.03
2018-04-23T10:06:45.885Z,7.57
2018-04-23T10:10:48.424Z,6.30
2018-04-23T10:14:50.952Z,6.40
2018-04-23T10:18:54.247Z,6.70
2018-04-23T10:22:57.557Z,5.73
2018-04-23T10:27:00.855Z,6.07
2018-04-23T10:31:04.159Z,5.80
2018-04-23T10:35:07.441Z,5.60
2018-04-23T10:39:09.985Z,6.23
2018-04-23T10:43:12.528Z,5.87
2018-04-23T10:51:25.599Z,4.40
2018-04-23T10:55:28.111Z,4.40
2018-04-23T10:59:30.642Z,4.77
2018-04-23T11:03:33.168Z,4.70
2018-04-23T11:07:35.721Z,3.97
2018-04-23T11:11:39.713Z,5.27
2018-04-23T11:15:42.233Z,5.07
2018-04-23T11:19:45.543Z,5.00
2018-04-23T11:23:48.854Z,5.70
2018-04-23T11:27:51.405Z,5.10
2018-04-23T11:31:53.963Z,5.17
2018-04-23T11:36:05.108Z,4.50
2018-04-23T11:40:07.639Z,4.60
2018-04-23T11:44:10.176Z,4.43
2018-04-23T11:48:12.717Z,4.23
2018-04-23T11:52:15.265Z,4.93
2018-04-23T11:56:17.804Z,5.57
2018-04-23T12:00:20.315Z,5.00
2018-04-23T12:04:23.008Z,5.30
2018-04-23T12:08:25.551Z,4.70
2018-04-23T12:12:28.113Z,5.27
2018-04-23T12:16:30.649Z,5.13
2018-04-23T12:20:33.949Z,4.80
2018-04-23T12:24:37.265Z,5.40
2018-04-23T12:28:39.825Z,5.23
2018-04-23T12:32:42.501Z,5.07
2018-04-23T12:36:45.838Z,5.07
2018-04-23T12:40:49.125Z,4.87
2018-04-23T12:44:51.665Z,4.80
2018-04-23T12:48:54.306Z,4.60
2018-04-23T12:52:57.611Z,5.00
2018-04-23T12:57:00.920Z,4.73
2018-04-23T13:01:03.447Z,3.67
2018-04-23T13:05:05.981Z,4.03
2018-04-23T13:09:09.290Z,3.77
2018-04-23T13:13:11.824Z,4.43
2018-04-23T13:17:14.357Z,4.20
2018-04-23T13:21:17.632Z,4.23
2018-04-23T13:25:20.164Z,4.90
2018-04-23T13:29:22.712Z,4.57
2018-04-23T13:33:26.007Z,5.37
2018-04-23T13:37:28.540Z,4.00
2018-04-23T13:41:31.063Z,4.10
2018-04-23T13:45:33.597Z,4.33
2018-04-23T13:49:36.144Z,4.60
2018-04-23T13:53:39.564Z,3.90
2018-04-23T13:57:42.881Z,4.13
2018-04-23T14:01:45.400Z,4.63
2018-04-23T14:05:47.940Z,4.70
2018-04-23T14:09:51.240Z,4.60
2018-04-23T14:13:53.816Z,4.67
2018-04-23T14:17:57.141Z,5.10
2018-04-23T14:22:00.431Z,5.37
2018-04-23T14:26:02.984Z,5.10
2018-04-23T14:30:05.529Z,5.00
2018-04-23T14:34:08.063Z,5.00
2018-04-23T14:38:10.595Z,5.10
2018-04-23T14:42:13.140Z,4.97
2018-04-23T14:46:15.654Z,5.03
2018-04-23T14:50:18.201Z,5.10
2018-04-23T14:54:20.736Z,5.10
2018-04-23T14:58:23.285Z,5.10
2018-04-23T15:02:25.827Z,5.37
2018-04-23T15:06:28.349Z,5.30
2018-04-23T15:10:30.891Z,5.20
2018-04-23T15:14:34.187Z,4.97
2018-04-23T15:18:36.719Z,5.10
2018-04-23T15:22:39.258Z,5.30
2018-04-23T15:26:41.773Z,4.60
2018-04-23T15:30:44.312Z,4.80
2018-04-23T15:34:46.853Z,4.43
2018-04-23T15:38:49.387Z,4.60
2018-04-23T15:42:51.919Z,5.07
2018-04-23T15:46:54.436Z,5.00
2018-04-23T15:50:57.737Z,5.20
2018-04-23T15:55:01.027Z,4.83
2018-04-23T15:59:03.556Z,4.60
2018-04-23T16:03:06.099Z,4.63
2018-04-23T16:07:09.380Z,4.87
2018-04-23T16:11:11.912Z,4.83
2018-04-23T16:15:14.452Z,4.57
2018-04-23T16:19:16.985Z,4.97
2018-04-23T16:23:19.525Z,4.60
2018-04-23T16:27:22.036Z,5.10
2018-04-23T16:31:26.877Z,4.50
2018-04-23T16:35:29.618Z,4.93
2018-04-23T16:39:32.158Z,5.37
2018-04-23T16:43:34.695Z,5.00
2018-04-23T16:47:37.206Z,5.00
2018-04-23T16:51:40.509Z,4.87
2018-04-23T16:55:43.818Z,4.80
2018-04-23T16:59:47.128Z,4.60
2018-04-23T17:03:50.433Z,5.60
2018-04-23T17:07:53.767Z,4.90
2018-04-23T17:11:56.312Z,4.77
2018-04-23T17:15:59.616Z,4.83
2018-04-23T17:20:02.921Z,4.30
2018-04-23T17:24:05.456Z,3.93
2018-04-23T17:28:07.993Z,3.73
2018-04-23T17:32:10.507Z,3.23
2018-04-23T17:36:13.087Z,3.33
2018-04-23T17:40:15.617Z,2.90
2018-04-23T17:44:18.156Z,3.00
2018-04-23T17:48:20.694Z,3.03
2018-04-23T17:52:23.207Z,3.10
2018-04-23T17:56:26.503Z,3.13
2018-04-23T18:00:29.805Z,2.83
2018-04-23T18:04:33.102Z,3.40
2018-04-23T18:08:36.438Z,3.40
2018-04-23T18:12:38.965Z,3.70
2018-04-23T18:16:41.504Z,2.97
2018-04-23T18:20:44.036Z,3.10
2018-04-23T18:24:46.568Z,3.30
2018-04-23T18:28:49.109Z,3.63
2018-04-23T18:32:51.624Z,3.30
2018-04-23T18:36:54.925Z,3.03
2018-04-23T18:40:58.225Z,3.20
2018-04-23T18:45:01.537Z,2.80
2018-04-23T18:49:04.075Z,3.77
2018-04-23T18:53:06.591Z,3.00
2018-04-23T18:57:09.898Z,3.17
2018-04-23T19:01:13.250Z,2.97
2018-04-23T19:05:15.759Z,2.97
2018-04-23T19:09:18.292Z,3.50
2018-04-23T19:13:20.817Z,3.00
2018-04-23T19:17:23.362Z,3.53
2018-04-23T19:21:25.895Z,3.20
2018-04-23T19:25:28.439Z,3.17
2018-04-23T19:29:30.973Z,3.77
2018-04-23T19:33:33.485Z,3.47
2018-04-23T19:37:36.785Z,3.40
2018-04-23T19:41:40.090Z,3.30
2018-04-23T19:45:43.392Z,3.43
2018-04-23T19:49:46.712Z,3.07
2018-04-23T19:53:49.225Z,3.37
2018-04-23T19:57:51.761Z,3.30
2018-04-23T20:01:55.057Z,4.10
2018-04-23T20:05:58.351Z,3.30
2018-04-23T20:10:00.889Z,3.50
2018-04-23T20:14:03.430Z,3.43
2018-04-23T20:18:06.734Z,3.55
2018-04-23T20:22:09.725Z,3.60
2018-04-23T20:26:12.296Z,3.40
2018-04-23T20:30:14.976Z,3.20
2018-04-23T20:34:17.508Z,3.73
2018-04-23T20:38:20.024Z,3.47
2018-04-23T20:42:22.701Z,3.43
2018-04-23T20:46:26.528Z,2.93
2018-04-23T20:50:29.065Z,3.47
2018-04-23T20:54:32.358Z,3.60
2018-04-23T20:58:35.640Z,3.70
2018-04-23T21:02:38.171Z,3.70
2018-04-23T21:06:40.716Z,3.40
2018-04-23T21:10:43.248Z,3.43
2018-04-23T21:14:45.780Z,3.73
2018-04-23T21:18:48.305Z,3.50
2018-04-23T21:22:50.848Z,3.47
2018-04-23T21:26:53.392Z,3.20
2018-04-23T21:30:55.950Z,3.40
2018-04-23T21:34:59.256Z,3.67
2018-04-23T21:39:02.544Z,3.57
2018-04-23T21:43:05.850Z,3.27
2018-04-23T21:47:09.155Z,3.50
2018-04-23T21:51:11.710Z,3.60
2018-04-23T21:55:14.251Z,3.67
2018-04-23T21:59:16.775Z,3.67
2018-04-23T22:03:19.324Z,3.63
2018-04-23T22:07:21.865Z,4.07
2018-04-23T22:11:24.392Z,3.70
2018-04-23T22:15:26.925Z,4.10
2018-04-23T22:19:29.437Z,3.80
2018-04-23T22:23:31.977Z,4.00
2018-04-23T22:27:34.515Z,3.80
2018-04-23T22:31:37.050Z,4.17
2018-04-23T22:35:39.609Z,3.90
2018-04-23T22:39:42.148Z,3.80
2018-04-23T22:43:44.672Z,3.80
2018-04-23T22:47:47.204Z,3.90
2018-04-23T22:51:49.740Z,4.40
2018-04-23T22:55:53.039Z,4.00
2018-04-23T22:59:55.584Z,4.10
2018-04-23T23:03:58.100Z,3.93
2018-04-23T23:08:00.640Z,4.30
2018-04-23T23:12:03.199Z,4.50
2018-04-23T23:16:05.741Z,4.07
2018-04-23T23:20:09.040Z,4.00
2018-04-23T23:24:12.330Z,4.40
2018-04-23T23:28:14.868Z,4.57
2018-04-23T23:32:17.398Z,4.40
2018-04-23T23:36:19.931Z,4.40
2018-04-23T23:40:22.470Z,4.80
2018-04-23T23:44:24.985Z,4.80
2018-04-23T23:48:27.615Z,4.73
2018-04-23T23:52:30.145Z,5.00
2018-04-23T23:56:32.679Z,5.00
